sensor_id;sensor_type;location;lat;lon;timestamp;P1;durP1;ratioP1;P2;durP2;ratioP2
75892;SDS011;64572;50.950;3.676;2023-02-08T00:00:34;64.90;;;31.45;;
75892;SDS011;64572;50.950;3.676;2023-02-08T00:03:01;57.57;;;26.67;;
75892;SDS011;64572;50.950;3.676;2023-02-08T00:05:27;67.95;;;32.60;;
75892;SDS011;64572;50.950;3.676;2023-02-08T00:07:52;72.18;;;29.88;;
75892;SDS011;64572;50.950;3.676;2023-02-08T00:10:18;64.88;;;31.88;;
75892;SDS011;64572;50.950;3.676;2023-02-08T00:12:44;67.90;;;30.73;;
75892;SDS011;64572;50.950;3.676;2023-02-08T00:15:10;67.20;;;30.50;;
75892;SDS011;64572;50.950;3.676;2023-02-08T00:17:35;61.80;;;30.67;;
75892;SDS011;64572;50.950;3.676;2023-02-08T00:20:02;66.68;;;30.75;;
75892;SDS011;64572;50.950;3.676;2023-02-08T00:22:28;69.68;;;31.13;;
75892;SDS011;64572;50.950;3.676;2023-02-08T00:24:53;73.97;;;32.55;;
75892;SDS011;64572;50.950;3.676;2023-02-08T00:27:19;65.05;;;31.08;;
75892;SDS011;64572;50.950;3.676;2023-02-08T00:29:45;71.97;;;30.50;;
75892;SDS011;64572;50.950;3.676;2023-02-08T00:32:10;60.88;;;28.55;;
75892;SDS011;64572;50.950;3.676;2023-02-08T00:34:36;59.40;;;29.08;;
75892;SDS011;64572;50.950;3.676;2023-02-08T00:37:03;58.03;;;28.00;;
75892;SDS011;64572;50.950;3.676;2023-02-08T00:39:29;56.80;;;27.73;;
75892;SDS011;64572;50.950;3.676;2023-02-08T00:41:55;65.82;;;29.60;;
75892;SDS011;64572;50.950;3.676;2023-02-08T00:44:21;66.93;;;31.20;;
75892;SDS011;64572;50.950;3.676;2023-02-08T00:46:47;65.10;;;30.80;;
75892;SDS011;64572;50.950;3.676;2023-02-08T00:49:12;66.95;;;29.95;;
75892;SDS011;64572;50.950;3.676;2023-02-08T00:51:38;69.88;;;30.88;;
75892;SDS011;64572;50.950;3.676;2023-02-08T00:54:04;59.92;;;29.25;;
75892;SDS011;64572;50.950;3.676;2023-02-08T00:56:29;61.30;;;28.38;;
75892;SDS011;64572;50.950;3.676;2023-02-08T00:58:55;56.50;;;26.58;;
75892;SDS011;64572;50.950;3.676;2023-02-08T01:01:21;58.15;;;27.98;;
75892;SDS011;64572;50.950;3.676;2023-02-08T01:03:46;57.15;;;27.17;;
75892;SDS011;64572;50.950;3.676;2023-02-08T01:06:14;61.35;;;28.50;;
75892;SDS011;64572;50.950;3.676;2023-02-08T01:08:41;71.68;;;31.15;;
75892;SDS011;64572;50.950;3.676;2023-02-08T01:11:08;62.72;;;29.83;;
75892;SDS011;64572;50.950;3.676;2023-02-08T01:13:39;58.33;;;28.77;;
75892;SDS011;64572;50.950;3.676;2023-02-08T01:16:12;59.85;;;28.40;;
75892;SDS011;64572;50.950;3.676;2023-02-08T01:18:46;54.15;;;27.60;;
75892;SDS011;64572;50.950;3.676;2023-02-08T01:21:14;55.63;;;26.83;;
75892;SDS011;64572;50.950;3.676;2023-02-08T01:26:08;50.13;;;24.15;;
75892;SDS011;64572;50.950;3.676;2023-02-08T01:28:35;57.70;;;25.45;;
75892;SDS011;64572;50.950;3.676;2023-02-08T01:31:08;55.55;;;24.05;;
75892;SDS011;64572;50.950;3.676;2023-02-08T01:33:35;57.63;;;24.75;;
75892;SDS011;64572;50.950;3.676;2023-02-08T01:36:01;56.35;;;24.65;;
75892;SDS011;64572;50.950;3.676;2023-02-08T01:38:27;54.13;;;25.17;;
75892;SDS011;64572;50.950;3.676;2023-02-08T01:40:54;57.95;;;28.17;;
75892;SDS011;64572;50.950;3.676;2023-02-08T01:43:24;70.80;;;33.20;;
75892;SDS011;64572;50.950;3.676;2023-02-08T01:45:54;64.93;;;30.17;;
75892;SDS011;64572;50.950;3.676;2023-02-08T01:51:02;53.08;;;25.05;;
75892;SDS011;64572;50.950;3.676;2023-02-08T01:53:30;50.13;;;25.17;;
75892;SDS011;64572;50.950;3.676;2023-02-08T01:55:58;53.17;;;24.75;;
75892;SDS011;64572;50.950;3.676;2023-02-08T01:58:28;51.05;;;24.63;;
75892;SDS011;64572;50.950;3.676;2023-02-08T02:00:55;53.10;;;23.27;;
75892;SDS011;64572;50.950;3.676;2023-02-08T02:03:21;55.45;;;26.80;;
75892;SDS011;64572;50.950;3.676;2023-02-08T02:05:49;53.20;;;25.05;;
75892;SDS011;64572;50.950;3.676;2023-02-08T02:08:18;50.38;;;23.33;;
75892;SDS011;64572;50.950;3.676;2023-02-08T02:10:44;47.55;;;22.85;;
75892;SDS011;64572;50.950;3.676;2023-02-08T02:13:13;49.92;;;23.30;;
75892;SDS011;64572;50.950;3.676;2023-02-08T02:15:44;44.38;;;20.55;;
75892;SDS011;64572;50.950;3.676;2023-02-08T02:18:10;45.75;;;20.45;;
75892;SDS011;64572;50.950;3.676;2023-02-08T02:31:47;57.63;;;24.80;;
75892;SDS011;64572;50.950;3.676;2023-02-08T02:37:47;51.60;;;22.40;;
75892;SDS011;64572;50.950;3.676;2023-02-08T02:43:13;52.15;;;24.00;;
75892;SDS011;64572;50.950;3.676;2023-02-08T02:48:50;47.15;;;22.30;;
75892;SDS011;64572;50.950;3.676;2023-02-08T02:54:05;48.25;;;22.48;;
75892;SDS011;64572;50.950;3.676;2023-02-08T02:56:42;51.13;;;21.63;;
75892;SDS011;64572;50.950;3.676;2023-02-08T02:59:10;49.05;;;21.98;;
75892;SDS011;64572;50.950;3.676;2023-02-08T03:01:38;45.35;;;22.10;;
75892;SDS011;64572;50.950;3.676;2023-02-08T03:17:33;52.03;;;24.17;;
75892;SDS011;64572;50.950;3.676;2023-02-08T03:20:09;55.15;;;25.63;;
75892;SDS011;64572;50.950;3.676;2023-02-08T03:22:44;50.97;;;23.88;;
75892;SDS011;64572;50.950;3.676;2023-02-08T03:36:37;48.83;;;21.55;;
75892;SDS011;64572;50.950;3.676;2023-02-08T03:39:15;45.30;;;21.60;;
75892;SDS011;64572;50.950;3.676;2023-02-08T03:41:46;55.00;;;25.52;;
75892;SDS011;64572;50.950;3.676;2023-02-08T03:44:17;58.25;;;26.70;;
75892;SDS011;64572;50.950;3.676;2023-02-08T03:46:49;53.63;;;22.92;;
75892;SDS011;64572;50.950;3.676;2023-02-08T03:49:22;48.50;;;21.88;;
75892;SDS011;64572;50.950;3.676;2023-02-08T03:51:53;49.10;;;23.70;;
75892;SDS011;64572;50.950;3.676;2023-02-08T03:54:24;55.58;;;25.88;;
75892;SDS011;64572;50.950;3.676;2023-02-08T03:56:54;54.28;;;26.20;;
75892;SDS011;64572;50.950;3.676;2023-02-08T03:59:34;54.55;;;24.35;;
75892;SDS011;64572;50.950;3.676;2023-02-08T04:02:06;46.40;;;22.30;;
75892;SDS011;64572;50.950;3.676;2023-02-08T04:04:36;51.53;;;24.65;;
75892;SDS011;64572;50.950;3.676;2023-02-08T04:07:06;48.17;;;22.15;;
75892;SDS011;64572;50.950;3.676;2023-02-08T04:09:32;49.80;;;22.23;;
75892;SDS011;64572;50.950;3.676;2023-02-08T04:11:58;52.67;;;24.58;;
75892;SDS011;64572;50.950;3.676;2023-02-08T04:14:23;45.63;;;23.25;;
75892;SDS011;64572;50.950;3.676;2023-02-08T04:16:49;48.83;;;23.40;;
75892;SDS011;64572;50.950;3.676;2023-02-08T04:19:15;56.60;;;25.60;;
75892;SDS011;64572;50.950;3.676;2023-02-08T04:21:41;52.65;;;24.00;;
75892;SDS011;64572;50.950;3.676;2023-02-08T04:24:06;47.92;;;22.58;;
75892;SDS011;64572;50.950;3.676;2023-02-08T04:26:32;48.45;;;21.83;;
75892;SDS011;64572;50.950;3.676;2023-02-08T04:28:58;49.78;;;23.33;;
75892;SDS011;64572;50.950;3.676;2023-02-08T04:31:24;49.78;;;23.80;;
75892;SDS011;64572;50.950;3.676;2023-02-08T04:33:49;47.85;;;22.85;;
75892;SDS011;64572;50.950;3.676;2023-02-08T04:36:15;50.30;;;23.73;;
75892;SDS011;64572;50.950;3.676;2023-02-08T04:38:41;49.80;;;24.15;;
75892;SDS011;64572;50.950;3.676;2023-02-08T04:41:07;51.53;;;25.52;;
75892;SDS011;64572;50.950;3.676;2023-02-08T04:43:32;48.60;;;23.65;;
75892;SDS011;64572;50.950;3.676;2023-02-08T04:45:58;59.00;;;24.60;;
75892;SDS011;64572;50.950;3.676;2023-02-08T04:48:24;56.17;;;25.08;;
75892;SDS011;64572;50.950;3.676;2023-02-08T04:50:49;51.00;;;24.75;;
75892;SDS011;64572;50.950;3.676;2023-02-08T04:53:15;55.10;;;24.92;;
75892;SDS011;64572;50.950;3.676;2023-02-08T04:55:40;42.40;;;22.42;;
75892;SDS011;64572;50.950;3.676;2023-02-08T04:58:06;47.75;;;23.35;;
75892;SDS011;64572;50.950;3.676;2023-02-08T05:00:32;50.67;;;23.58;;
75892;SDS011;64572;50.950;3.676;2023-02-08T05:02:58;45.05;;;23.50;;
75892;SDS011;64572;50.950;3.676;2023-02-08T05:05:24;45.78;;;22.30;;
75892;SDS011;64572;50.950;3.676;2023-02-08T05:07:51;49.53;;;22.90;;
75892;SDS011;64572;50.950;3.676;2023-02-08T05:10:17;50.15;;;22.70;;
75892;SDS011;64572;50.950;3.676;2023-02-08T05:12:43;54.38;;;21.25;;
75892;SDS011;64572;50.950;3.676;2023-02-08T05:15:09;46.15;;;20.70;;
75892;SDS011;64572;50.950;3.676;2023-02-08T05:17:35;50.00;;;23.35;;
75892;SDS011;64572;50.950;3.676;2023-02-08T05:20:00;48.40;;;24.10;;
75892;SDS011;64572;50.950;3.676;2023-02-08T05:22:27;47.55;;;22.38;;
75892;SDS011;64572;50.950;3.676;2023-02-08T05:24:52;51.65;;;23.15;;
75892;SDS011;64572;50.950;3.676;2023-02-08T05:27:19;52.95;;;22.63;;
75892;SDS011;64572;50.950;3.676;2023-02-08T05:29:45;59.08;;;24.77;;
75892;SDS011;64572;50.950;3.676;2023-02-08T05:32:10;46.70;;;21.02;;
75892;SDS011;64572;50.950;3.676;2023-02-08T05:34:37;50.00;;;21.50;;
75892;SDS011;64572;50.950;3.676;2023-02-08T05:37:03;45.47;;;23.05;;
75892;SDS011;64572;50.950;3.676;2023-02-08T05:39:28;53.38;;;24.08;;
75892;SDS011;64572;50.950;3.676;2023-02-08T05:41:54;51.72;;;24.48;;
75892;SDS011;64572;50.950;3.676;2023-02-08T05:44:20;49.05;;;23.00;;
75892;SDS011;64572;50.950;3.676;2023-02-08T05:46:45;48.28;;;22.00;;
75892;SDS011;64572;50.950;3.676;2023-02-08T05:49:11;53.10;;;24.10;;
75892;SDS011;64572;50.950;3.676;2023-02-08T05:51:37;50.17;;;22.80;;
75892;SDS011;64572;50.950;3.676;2023-02-08T05:54:03;48.08;;;21.50;;
75892;SDS011;64572;50.950;3.676;2023-02-08T05:56:29;49.15;;;21.60;;
75892;SDS011;64572;50.950;3.676;2023-02-08T05:58:55;45.88;;;22.55;;
75892;SDS011;64572;50.950;3.676;2023-02-08T06:01:21;51.15;;;24.65;;
75892;SDS011;64572;50.950;3.676;2023-02-08T06:03:47;44.35;;;22.70;;
75892;SDS011;64572;50.950;3.676;2023-02-08T06:06:13;45.10;;;21.60;;
75892;SDS011;64572;50.950;3.676;2023-02-08T06:08:39;43.03;;;19.50;;
75892;SDS011;64572;50.950;3.676;2023-02-08T06:11:05;48.88;;;22.10;;
75892;SDS011;64572;50.950;3.676;2023-02-08T06:13:31;48.47;;;22.25;;
75892;SDS011;64572;50.950;3.676;2023-02-08T06:15:56;48.47;;;22.88;;
75892;SDS011;64572;50.950;3.676;2023-02-08T06:18:22;53.50;;;23.55;;
75892;SDS011;64572;50.950;3.676;2023-02-08T06:20:48;48.25;;;22.23;;
75892;SDS011;64572;50.950;3.676;2023-02-08T06:23:17;46.33;;;20.90;;
75892;SDS011;64572;50.950;3.676;2023-02-08T06:25:42;45.70;;;21.60;;
75892;SDS011;64572;50.950;3.676;2023-02-08T06:28:08;53.03;;;24.25;;
75892;SDS011;64572;50.950;3.676;2023-02-08T06:30:35;45.72;;;21.65;;
75892;SDS011;64572;50.950;3.676;2023-02-08T06:33:01;47.58;;;22.55;;
75892;SDS011;64572;50.950;3.676;2023-02-08T06:35:27;47.20;;;21.30;;
75892;SDS011;64572;50.950;3.676;2023-02-08T06:37:53;44.22;;;21.17;;
75892;SDS011;64572;50.950;3.676;2023-02-08T06:40:19;51.95;;;22.08;;
75892;SDS011;64572;50.950;3.676;2023-02-08T06:42:45;44.38;;;22.02;;
75892;SDS011;64572;50.950;3.676;2023-02-08T06:45:12;48.17;;;23.48;;
75892;SDS011;64572;50.950;3.676;2023-02-08T06:47:37;49.20;;;22.45;;
75892;SDS011;64572;50.950;3.676;2023-02-08T06:50:03;50.17;;;23.75;;
75892;SDS011;64572;50.950;3.676;2023-02-08T06:52:30;55.78;;;23.48;;
75892;SDS011;64572;50.950;3.676;2023-02-08T06:54:56;49.45;;;21.60;;
75892;SDS011;64572;50.950;3.676;2023-02-08T06:57:22;52.13;;;23.25;;
75892;SDS011;64572;50.950;3.676;2023-02-08T06:59:47;45.85;;;22.60;;
75892;SDS011;64572;50.950;3.676;2023-02-08T07:02:14;46.67;;;22.05;;
75892;SDS011;64572;50.950;3.676;2023-02-08T07:04:42;44.30;;;20.50;;
75892;SDS011;64572;50.950;3.676;2023-02-08T07:07:10;50.47;;;23.05;;
75892;SDS011;64572;50.950;3.676;2023-02-08T07:09:36;42.73;;;19.37;;
75892;SDS011;64572;50.950;3.676;2023-02-08T07:12:02;48.05;;;22.50;;
75892;SDS011;64572;50.950;3.676;2023-02-08T07:14:29;49.60;;;22.88;;
75892;SDS011;64572;50.950;3.676;2023-02-08T07:16:59;46.80;;;21.73;;
75892;SDS011;64572;50.950;3.676;2023-02-08T07:19:25;53.88;;;22.60;;
75892;SDS011;64572;50.950;3.676;2023-02-08T07:21:52;48.15;;;21.88;;
75892;SDS011;64572;50.950;3.676;2023-02-08T07:24:17;50.05;;;23.92;;
75892;SDS011;64572;50.950;3.676;2023-02-08T07:26:43;44.90;;;22.38;;
75892;SDS011;64572;50.950;3.676;2023-02-08T07:29:09;49.55;;;23.58;;
75892;SDS011;64572;50.950;3.676;2023-02-08T07:31:34;39.40;;;20.52;;
75892;SDS011;64572;50.950;3.676;2023-02-08T07:34:00;45.42;;;21.90;;
75892;SDS011;64572;50.950;3.676;2023-02-08T07:36:26;48.85;;;22.55;;
75892;SDS011;64572;50.950;3.676;2023-02-08T07:38:51;42.45;;;21.38;;
75892;SDS011;64572;50.950;3.676;2023-02-08T07:41:18;48.03;;;23.15;;
75892;SDS011;64572;50.950;3.676;2023-02-08T07:43:44;50.00;;;22.85;;
75892;SDS011;64572;50.950;3.676;2023-02-08T07:46:14;48.70;;;21.75;;
75892;SDS011;64572;50.950;3.676;2023-02-08T07:48:42;43.90;;;21.45;;
75892;SDS011;64572;50.950;3.676;2023-02-08T07:51:08;51.53;;;21.48;;
75892;SDS011;64572;50.950;3.676;2023-02-08T07:53:34;42.30;;;20.55;;
75892;SDS011;64572;50.950;3.676;2023-02-08T07:56:01;47.47;;;22.17;;
75892;SDS011;64572;50.950;3.676;2023-02-08T07:58:26;41.45;;;22.02;;
75892;SDS011;64572;50.950;3.676;2023-02-08T08:00:52;51.00;;;24.33;;
75892;SDS011;64572;50.950;3.676;2023-02-08T08:03:18;55.78;;;23.83;;
75892;SDS011;64572;50.950;3.676;2023-02-08T08:05:44;51.72;;;22.45;;
75892;SDS011;64572;50.950;3.676;2023-02-08T08:08:09;48.95;;;23.95;;
75892;SDS011;64572;50.950;3.676;2023-02-08T08:10:36;49.67;;;24.65;;
75892;SDS011;64572;50.950;3.676;2023-02-08T08:13:02;57.67;;;24.27;;
75892;SDS011;64572;50.950;3.676;2023-02-08T08:15:28;50.13;;;23.77;;
75892;SDS011;64572;50.950;3.676;2023-02-08T08:17:53;54.83;;;25.85;;
75892;SDS011;64572;50.950;3.676;2023-02-08T08:20:19;56.38;;;26.80;;
75892;SDS011;64572;50.950;3.676;2023-02-08T08:22:45;58.30;;;26.67;;
75892;SDS011;64572;50.950;3.676;2023-02-08T08:25:11;56.35;;;29.55;;
75892;SDS011;64572;50.950;3.676;2023-02-08T08:27:37;48.70;;;25.50;;
75892;SDS011;64572;50.950;3.676;2023-02-08T08:30:04;59.33;;;31.83;;
75892;SDS011;64572;50.950;3.676;2023-02-08T08:32:32;56.42;;;29.83;;
75892;SDS011;64572;50.950;3.676;2023-02-08T08:34:57;51.60;;;27.02;;
75892;SDS011;64572;50.950;3.676;2023-02-08T08:37:23;54.90;;;26.23;;
75892;SDS011;64572;50.950;3.676;2023-02-08T08:39:48;54.45;;;26.60;;
75892;SDS011;64572;50.950;3.676;2023-02-08T08:42:14;49.78;;;26.50;;
75892;SDS011;64572;50.950;3.676;2023-02-08T08:44:40;51.10;;;26.88;;
75892;SDS011;64572;50.950;3.676;2023-02-08T08:47:07;55.42;;;28.00;;
75892;SDS011;64572;50.950;3.676;2023-02-08T08:49:33;57.67;;;28.90;;
75892;SDS011;64572;50.950;3.676;2023-02-08T08:51:58;56.05;;;29.70;;
75892;SDS011;64572;50.950;3.676;2023-02-08T08:54:24;53.03;;;28.25;;
75892;SDS011;64572;50.950;3.676;2023-02-08T08:56:50;48.70;;;26.75;;
75892;SDS011;64572;50.950;3.676;2023-02-08T08:59:15;51.53;;;27.02;;
75892;SDS011;64572;50.950;3.676;2023-02-08T09:01:41;45.67;;;24.98;;
75892;SDS011;64572;50.950;3.676;2023-02-08T09:04:07;44.72;;;25.30;;
75892;SDS011;64572;50.950;3.676;2023-02-08T09:06:33;45.53;;;23.88;;
75892;SDS011;64572;50.950;3.676;2023-02-08T09:08:59;38.78;;;23.05;;
75892;SDS011;64572;50.950;3.676;2023-02-08T09:11:26;40.25;;;23.70;;
75892;SDS011;64572;50.950;3.676;2023-02-08T09:13:51;41.97;;;23.55;;
75892;SDS011;64572;50.950;3.676;2023-02-08T09:18:46;37.45;;;21.67;;
75892;SDS011;64572;50.950;3.676;2023-02-08T09:21:13;35.80;;;21.30;;
75892;SDS011;64572;50.950;3.676;2023-02-08T09:26:07;36.80;;;20.17;;
75892;SDS011;64572;50.950;3.676;2023-02-08T09:28:35;37.15;;;18.60;;
75892;SDS011;64572;50.950;3.676;2023-02-08T09:31:08;33.53;;;18.70;;
75892;SDS011;64572;50.950;3.676;2023-02-08T09:33:34;31.35;;;17.67;;
75892;SDS011;64572;50.950;3.676;2023-02-08T09:36:00;31.85;;;18.73;;
75892;SDS011;64572;50.950;3.676;2023-02-08T09:38:26;28.00;;;16.88;;
75892;SDS011;64572;50.950;3.676;2023-02-08T09:46:04;25.05;;;14.93;;
75892;SDS011;64572;50.950;3.676;2023-02-08T09:48:36;23.45;;;14.57;;
75892;SDS011;64572;50.950;3.676;2023-02-08T09:54:05;20.50;;;12.75;;
75892;SDS011;64572;50.950;3.676;2023-02-08T09:56:33;21.50;;;13.35;;
75892;SDS011;64572;50.950;3.676;2023-02-08T09:59:04;19.65;;;11.95;;
75892;SDS011;64572;50.950;3.676;2023-02-08T10:01:31;21.90;;;12.20;;
75892;SDS011;64572;50.950;3.676;2023-02-08T10:04:02;17.83;;;10.60;;
75892;SDS011;64572;50.950;3.676;2023-02-08T10:06:33;22.58;;;11.57;;
75892;SDS011;64572;50.950;3.676;2023-02-08T10:09:00;16.95;;;10.70;;
75892;SDS011;64572;50.950;3.676;2023-02-08T10:14:47;18.92;;;10.55;;
75892;SDS011;64572;50.950;3.676;2023-02-08T10:30:52;17.10;;;10.55;;
75892;SDS011;64572;50.950;3.676;2023-02-08T10:33:28;17.52;;;10.18;;
75892;SDS011;64572;50.950;3.676;2023-02-08T10:36:01;18.33;;;11.73;;
75892;SDS011;64572;50.950;3.676;2023-02-08T10:38:28;21.58;;;11.15;;
75892;SDS011;64572;50.950;3.676;2023-02-08T10:41:00;18.58;;;11.02;;
75892;SDS011;64572;50.950;3.676;2023-02-08T10:51:34;20.23;;;11.77;;
75892;SDS011;64572;50.950;3.676;2023-02-08T10:54:00;19.08;;;9.93;;
75892;SDS011;64572;50.950;3.676;2023-02-08T10:58:54;20.27;;;10.95;;
75892;SDS011;64572;50.950;3.676;2023-02-08T11:01:22;18.95;;;10.00;;
75892;SDS011;64572;50.950;3.676;2023-02-08T11:04:02;17.80;;;9.93;;
75892;SDS011;64572;50.950;3.676;2023-02-08T11:06:30;18.27;;;9.18;;
75892;SDS011;64572;50.950;3.676;2023-02-08T11:08:56;16.27;;;7.90;;
75892;SDS011;64572;50.950;3.676;2023-02-08T11:11:23;15.77;;;8.13;;
75892;SDS011;64572;50.950;3.676;2023-02-08T11:13:53;14.95;;;8.18;;
75892;SDS011;64572;50.950;3.676;2023-02-08T11:16:33;17.20;;;8.60;;
75892;SDS011;64572;50.950;3.676;2023-02-08T11:19:01;16.15;;;8.10;;
75892;SDS011;64572;50.950;3.676;2023-02-08T11:26:46;15.77;;;8.07;;
75892;SDS011;64572;50.950;3.676;2023-02-08T11:29:26;14.02;;;7.57;;
75892;SDS011;64572;50.950;3.676;2023-02-08T11:34:24;16.55;;;7.90;;
75892;SDS011;64572;50.950;3.676;2023-02-08T11:37:17;22.25;;;8.35;;
75892;SDS011;64572;50.950;3.676;2023-02-08T11:39:53;16.42;;;7.70;;
75892;SDS011;64572;50.950;3.676;2023-02-08T11:42:22;13.25;;;7.18;;
75892;SDS011;64572;50.950;3.676;2023-02-08T11:44:50;15.02;;;7.50;;
75892;SDS011;64572;50.950;3.676;2023-02-08T11:47:21;14.20;;;7.65;;
75892;SDS011;64572;50.950;3.676;2023-02-08T11:50:00;14.30;;;7.75;;
75892;SDS011;64572;50.950;3.676;2023-02-08T11:52:29;14.85;;;8.00;;
75892;SDS011;64572;50.950;3.676;2023-02-08T11:55:10;13.55;;;7.60;;
75892;SDS011;64572;50.950;3.676;2023-02-08T12:00:23;15.73;;;7.35;;
75892;SDS011;64572;50.950;3.676;2023-02-08T12:02:58;12.90;;;6.25;;
75892;SDS011;64572;50.950;3.676;2023-02-08T12:11:40;12.63;;;6.07;;
75892;SDS011;64572;50.950;3.676;2023-02-08T12:22:05;11.93;;;6.15;;
75892;SDS011;64572;50.950;3.676;2023-02-08T12:24:53;12.88;;;5.72;;
75892;SDS011;64572;50.950;3.676;2023-02-08T12:30:33;13.05;;;5.82;;
75892;SDS011;64572;50.950;3.676;2023-02-08T12:33:16;10.93;;;5.72;;
75892;SDS011;64572;50.950;3.676;2023-02-08T12:41:38;7.72;;;3.65;;
75892;SDS011;64572;50.950;3.676;2023-02-08T12:47:06;7.68;;;3.00;;
75892;SDS011;64572;50.950;3.676;2023-02-08T12:54:54;8.45;;;3.30;;
75892;SDS011;64572;50.950;3.676;2023-02-08T12:57:22;7.65;;;3.30;;
75892;SDS011;64572;50.950;3.676;2023-02-08T13:00:00;10.30;;;3.60;;
75892;SDS011;64572;50.950;3.676;2023-02-08T13:02:33;9.88;;;3.55;;
75892;SDS011;64572;50.950;3.676;2023-02-08T13:05:10;10.10;;;3.60;;
75892;SDS011;64572;50.950;3.676;2023-02-08T13:07:43;7.93;;;3.47;;
75892;SDS011;64572;50.950;3.676;2023-02-08T13:12:51;11.40;;;3.83;;
75892;SDS011;64572;50.950;3.676;2023-02-08T13:15:38;9.10;;;4.15;;
75892;SDS011;64572;50.950;3.676;2023-02-08T13:18:17;8.55;;;3.95;;
75892;SDS011;64572;50.950;3.676;2023-02-08T13:21:06;11.70;;;4.30;;
75892;SDS011;64572;50.950;3.676;2023-02-08T13:23:37;9.60;;;4.30;;
75892;SDS011;64572;50.950;3.676;2023-02-08T13:28:45;10.18;;;4.63;;
75892;SDS011;64572;50.950;3.676;2023-02-08T13:31:15;11.82;;;4.28;;
75892;SDS011;64572;50.950;3.676;2023-02-08T13:33:55;11.45;;;4.70;;
75892;SDS011;64572;50.950;3.676;2023-02-08T13:36:41;10.55;;;4.88;;
75892;SDS011;64572;50.950;3.676;2023-02-08T13:39:42;9.68;;;4.35;;
75892;SDS011;64572;50.950;3.676;2023-02-08T13:44:48;9.73;;;4.40;;
75892;SDS011;64572;50.950;3.676;2023-02-08T13:48:00;8.93;;;4.18;;
75892;SDS011;64572;50.950;3.676;2023-02-08T13:53:17;12.25;;;4.03;;
75892;SDS011;64572;50.950;3.676;2023-02-08T13:56:02;9.32;;;3.92;;
75892;SDS011;64572;50.950;3.676;2023-02-08T14:01:23;10.98;;;4.50;;
75892;SDS011;64572;50.950;3.676;2023-02-08T14:06:31;12.70;;;4.22;;
75892;SDS011;64572;50.950;3.676;2023-02-08T14:09:07;10.18;;;4.35;;
75892;SDS011;64572;50.950;3.676;2023-02-08T14:14:27;9.52;;;4.35;;
75892;SDS011;64572;50.950;3.676;2023-02-08T14:22:22;9.98;;;3.70;;
75892;SDS011;64572;50.950;3.676;2023-02-08T14:32:35;9.88;;;3.88;;
75892;SDS011;64572;50.950;3.676;2023-02-08T14:37:31;9.75;;;4.00;;
75892;SDS011;64572;50.950;3.676;2023-02-08T14:45:34;14.95;;;5.30;;
75892;SDS011;64572;50.950;3.676;2023-02-08T14:53:35;12.30;;;5.00;;
75892;SDS011;64572;50.950;3.676;2023-02-08T14:56:06;10.98;;;4.60;;
75892;SDS011;64572;50.950;3.676;2023-02-08T14:58:45;11.30;;;4.57;;
75892;SDS011;64572;50.950;3.676;2023-02-08T15:01:24;13.38;;;4.45;;
75892;SDS011;64572;50.950;3.676;2023-02-08T15:03:58;10.85;;;4.10;;
75892;SDS011;64572;50.950;3.676;2023-02-08T15:09:12;10.68;;;3.97;;
75892;SDS011;64572;50.950;3.676;2023-02-08T15:11:58;13.32;;;4.43;;
75892;SDS011;64572;50.950;3.676;2023-02-08T15:14:24;11.15;;;4.15;;
75892;SDS011;64572;50.950;3.676;2023-02-08T15:16:51;11.88;;;4.15;;
75892;SDS011;64572;50.950;3.676;2023-02-08T15:19:30;9.82;;;4.10;;
75892;SDS011;64572;50.950;3.676;2023-02-08T15:22:16;11.52;;;4.72;;
75892;SDS011;64572;50.950;3.676;2023-02-08T15:24:58;12.48;;;4.65;;
75892;SDS011;64572;50.950;3.676;2023-02-08T15:27:44;13.90;;;5.30;;
75892;SDS011;64572;50.950;3.676;2023-02-08T15:33:07;12.23;;;4.90;;
75892;SDS011;64572;50.950;3.676;2023-02-08T15:35:38;12.55;;;5.45;;
75892;SDS011;64572;50.950;3.676;2023-02-08T15:38:16;12.75;;;5.25;;
75892;SDS011;64572;50.950;3.676;2023-02-08T15:41:01;12.95;;;5.80;;
75892;SDS011;64572;50.950;3.676;2023-02-08T15:43:27;14.90;;;5.60;;
75892;SDS011;64572;50.950;3.676;2023-02-08T15:45:56;13.60;;;5.50;;
75892;SDS011;64572;50.950;3.676;2023-02-08T15:48:26;13.55;;;5.38;;
75892;SDS011;64572;50.950;3.676;2023-02-08T15:50:53;12.73;;;5.60;;
75892;SDS011;64572;50.950;3.676;2023-02-08T15:53:20;15.85;;;6.45;;
75892;SDS011;64572;50.950;3.676;2023-02-08T15:55:48;15.25;;;5.70;;
75892;SDS011;64572;50.950;3.676;2023-02-08T15:58:23;14.40;;;5.80;;
75892;SDS011;64572;50.950;3.676;2023-02-08T16:00:57;14.55;;;5.82;;
75892;SDS011;64572;50.950;3.676;2023-02-08T16:03:25;14.07;;;5.63;;
75892;SDS011;64572;50.950;3.676;2023-02-08T16:05:55;13.68;;;6.20;;
75892;SDS011;64572;50.950;3.676;2023-02-08T16:08:30;17.90;;;6.50;;
75892;SDS011;64572;50.950;3.676;2023-02-08T16:11:02;13.45;;;6.45;;
75892;SDS011;64572;50.950;3.676;2023-02-08T16:13:35;15.40;;;5.70;;
75892;SDS011;64572;50.950;3.676;2023-02-08T16:18:56;14.55;;;5.32;;
75892;SDS011;64572;50.950;3.676;2023-02-08T16:26:28;13.73;;;5.20;;
75892;SDS011;64572;50.950;3.676;2023-02-08T16:29:03;12.88;;;5.22;;
75892;SDS011;64572;50.950;3.676;2023-02-08T16:31:31;13.98;;;5.25;;
75892;SDS011;64572;50.950;3.676;2023-02-08T16:34:00;13.75;;;5.10;;
75892;SDS011;64572;50.950;3.676;2023-02-08T16:36:35;14.82;;;4.70;;
75892;SDS011;64572;50.950;3.676;2023-02-08T16:44:36;13.50;;;5.50;;
75892;SDS011;64572;50.950;3.676;2023-02-08T16:47:23;13.38;;;5.07;;
75892;SDS011;64572;50.950;3.676;2023-02-08T16:49:52;11.90;;;5.28;;
75892;SDS011;64572;50.950;3.676;2023-02-08T16:52:17;12.63;;;5.30;;
75892;SDS011;64572;50.950;3.676;2023-02-08T16:54:43;11.25;;;4.88;;
75892;SDS011;64572;50.950;3.676;2023-02-08T16:57:09;16.33;;;5.50;;
75892;SDS011;64572;50.950;3.676;2023-02-08T16:59:34;13.70;;;5.55;;
75892;SDS011;64572;50.950;3.676;2023-02-08T17:02:00;13.40;;;5.30;;
75892;SDS011;64572;50.950;3.676;2023-02-08T17:04:26;12.98;;;5.65;;
75892;SDS011;64572;50.950;3.676;2023-02-08T17:06:52;11.65;;;5.30;;
75892;SDS011;64572;50.950;3.676;2023-02-08T17:09:18;22.92;;;6.28;;
75892;SDS011;64572;50.950;3.676;2023-02-08T17:11:43;13.32;;;5.20;;
75892;SDS011;64572;50.950;3.676;2023-02-08T17:14:09;15.35;;;6.00;;
75892;SDS011;64572;50.950;3.676;2023-02-08T17:16:35;12.90;;;5.47;;
75892;SDS011;64572;50.950;3.676;2023-02-08T17:19:03;17.60;;;5.55;;
75892;SDS011;64572;50.950;3.676;2023-02-08T17:21:29;16.17;;;5.68;;
75892;SDS011;64572;50.950;3.676;2023-02-08T17:23:55;13.32;;;6.10;;
75892;SDS011;64572;50.950;3.676;2023-02-08T17:26:25;15.07;;;6.45;;
75892;SDS011;64572;50.950;3.676;2023-02-08T17:28:53;15.88;;;6.88;;
75892;SDS011;64572;50.950;3.676;2023-02-08T17:31:19;17.15;;;8.23;;
75892;SDS011;64572;50.950;3.676;2023-02-08T17:33:46;17.67;;;8.25;;
75892;SDS011;64572;50.950;3.676;2023-02-08T17:36:12;17.63;;;8.73;;
75892;SDS011;64572;50.950;3.676;2023-02-08T17:38:39;18.50;;;8.57;;
75892;SDS011;64572;50.950;3.676;2023-02-08T17:41:07;16.57;;;8.20;;
75892;SDS011;64572;50.950;3.676;2023-02-08T17:43:37;18.55;;;8.25;;
75892;SDS011;64572;50.950;3.676;2023-02-08T17:46:07;15.20;;;7.60;;
75892;SDS011;64572;50.950;3.676;2023-02-08T17:48:34;20.25;;;8.30;;
75892;SDS011;64572;50.950;3.676;2023-02-08T17:50:59;19.35;;;8.38;;
75892;SDS011;64572;50.950;3.676;2023-02-08T17:53:25;17.42;;;8.45;;
75892;SDS011;64572;50.950;3.676;2023-02-08T17:55:51;23.27;;;10.55;;